Time;durP1;ratioP1;P1;durP2;ratioP2;P2;SDS_P1;SDS_P2;PMS_P1;PMS_P2;Temp;Humidity;BMP_temperature;BMP_pressure;BME280_temperature;BME280_humidity;BME280_pressure;Samples;Min_cycle;Max_cycle;Signal;HPM_P1;HPM_P2
2021/12/13 00:01:36;;;;;;;37.90;25.27;;;4.30;92.60;;;;;;5085551;28;20561;-57
2021/12/13 00:04:24;;;;;;;35.83;25.50;;;4.30;93.20;;;;;;5096377;28;20020;-58
2021/12/13 00:06:58;;;;;;;43.30;28.38;;;4.30;93.10;;;;;;5092456;28;20334;-54
2021/12/13 00:09:26;;;;;;;39.45;27.00;;;4.30;93.20;;;;;;5083865;28;20059;-57
2021/12/13 00:11:56;;;;;;;40.88;27.83;;;4.30;93.10;;;;;;5092655;28;20032;-57
2021/12/13 00:14:28;;;;;;;42.75;27.08;;;4.30;92.90;;;;;;5096756;28;20036;-57
2021/12/13 00:17:02;;;;;;;36.08;24.58;;;4.30;93.00;;;;;;5096057;28;20020;-55
2021/12/13 00:19:41;;;;;;;36.78;25.42;;;4.40;93.20;;;;;;5096017;28;20027;-56
2021/12/13 00:22:19;;;;;;;42.53;25.58;;;4.40;93.30;;;;;;5094686;28;20047;-57
2021/12/13 00:24:46;;;;;;;41.33;27.00;;;4.40;92.80;;;;;;5095045;28;20029;-57
2021/12/13 00:27:15;;;;;;;35.35;24.45;;;4.40;92.70;;;;;;5095867;28;20024;-56
2021/12/13 00:30:06;;;;;;;39.55;25.30;;;4.30;92.90;;;;;;5095908;28;20060;-57
2021/12/13 00:32:39;;;;;;;34.78;23.60;;;4.30;92.80;;;;;;5095861;28;20031;-55
2021/12/13 00:35:13;;;;;;;37.22;24.70;;;4.30;93.00;;;;;;5095702;28;20020;-55
2021/12/13 00:37:44;;;;;;;39.10;23.80;;;4.30;92.90;;;;;;5089690;28;20031;-56
2021/12/13 00:40:24;;;;;;;38.17;26.77;;;4.30;92.80;;;;;;5076090;28;20115;-56
2021/12/13 00:43:02;;;;;;;36.08;23.65;;;4.30;92.70;;;;;;5075317;28;20028;-55
2021/12/13 00:45:31;;;;;;;34.85;24.83;;;4.30;92.40;;;;;;5075769;28;20051;-55
2021/12/13 00:48:00;;;;;;;36.10;24.25;;;4.30;92.80;;;;;;5086182;28;20512;-58
2021/12/13 00:50:46;;;;;;;33.25;23.85;;;4.30;93.00;;;;;;5095633;28;20024;-57
2021/12/13 00:53:20;;;;;;;36.65;25.45;;;4.30;92.90;;;;;;5095041;28;20027;-54
2021/12/13 00:55:50;;;;;;;36.15;23.60;;;4.30;93.00;;;;;;5094625;28;20095;-56
2021/12/13 00:58:19;;;;;;;33.55;21.83;;;4.30;93.10;;;;;;5095796;28;20112;-54
2021/12/13 01:00:54;;;;;;;34.28;21.83;;;4.30;93.00;;;;;;5095299;28;20418;-55
2021/12/13 01:03:28;;;;;;;36.90;23.75;;;4.30;92.80;;;;;;5095195;28;20525;-58
2021/12/13 01:06:12;;;;;;;29.27;20.77;;;4.40;92.80;;;;;;5095195;28;20027;-57
2021/12/13 01:09:19;;;;;;;29.13;20.48;;;4.40;92.50;;;;;;5095210;28;20027;-56
2021/12/13 01:11:55;;;;;;;30.48;19.95;;;4.50;92.30;;;;;;5093219;28;20380;-56
2021/12/13 01:14:35;;;;;;;34.20;22.80;;;4.50;92.80;;;;;;5091189;28;20095;-56
2021/12/13 01:17:18;;;;;;;30.40;19.75;;;4.60;92.40;;;;;;5082407;28;20051;-55
2021/12/13 01:20:29;;;;;;;33.13;22.65;;;4.70;92.10;;;;;;5075024;28;20108;-56
2021/12/13 01:23:03;;;;;;;30.63;21.75;;;4.70;91.70;;;;;;5071394;28;20033;-56
2021/12/13 01:28:12;;;;;;;35.60;22.58;;;4.70;91.20;;;;;;5074417;28;20030;-54
2021/12/13 01:30:47;;;;;;;30.95;21.17;;;4.70;91.30;;;;;;5088469;28;20144;-56
2021/12/13 01:33:15;;;;;;;29.80;20.40;;;4.80;91.20;;;;;;5094700;28;20067;-55
2021/12/13 01:35:45;;;;;;;27.63;18.35;;;4.80;91.10;;;;;;5094611;28;20036;-55
2021/12/13 01:38:32;;;;;;;31.88;21.02;;;4.80;90.90;;;;;;5094481;28;20114;-56
2021/12/13 01:40:59;;;;;;;29.58;19.25;;;4.80;90.80;;;;;;5094203;28;20031;-56
2021/12/13 01:43:31;;;;;;;28.88;18.90;;;4.80;90.90;;;;;;5094716;28;20361;-53
2021/12/13 01:45:58;;;;;;;31.50;20.98;;;4.80;90.60;;;;;;5080450;28;20021;-58
2021/12/13 01:48:32;;;;;;;27.05;19.08;;;4.80;90.50;;;;;;5074130;28;20064;-55
2021/12/13 01:51:05;;;;;;;31.83;20.30;;;4.80;90.50;;;;;;5074243;28;20056;-53
2021/12/13 01:53:39;;;;;;;32.45;22.25;;;4.70;90.40;;;;;;5073780;28;20063;-55
2021/12/13 01:56:24;;;;;;;32.38;19.17;;;4.80;90.60;;;;;;5074288;28;20482;-54
2021/12/13 01:58:50;;;;;;;30.40;18.90;;;4.70;90.20;;;;;;5078005;28;20077;-57
2021/12/13 02:01:22;;;;;;;33.65;20.75;;;4.70;90.20;;;;;;5074109;28;20567;-58
2021/12/13 02:03:48;;;;;;;;;;;4.70;90.00;;;;;;5092297;28;20031;-53
2021/12/13 02:06:45;;;;;;;33.67;21.80;;;4.70;89.20;;;;;;5094061;28;19916;-58
2021/12/13 02:09:16;;;;;;;32.47;21.42;;;4.70;90.30;;;;;;5089035;28;20131;-56
2021/12/13 02:11:43;;;;;;;;;;;4.70;90.00;;;;;;5093475;28;20032;-53
2021/12/13 02:14:16;;;;;;;31.00;20.67;;;4.70;89.20;;;;;;5083133;28;19912;-56
2021/12/13 02:17:10;;;;;;;27.45;19.50;;;4.60;89.90;;;;;;5083919;28;20099;-56
2021/12/13 02:19:47;;;;;;;30.27;21.25;;;4.60;89.80;;;;;;5072549;28;20029;-57
2021/12/13 02:22:25;;;;;;;32.30;20.60;;;4.60;89.70;;;;;;5073193;28;20043;-56
2021/12/13 02:24:54;;;;;;;27.75;19.05;;;4.50;89.60;;;;;;5073553;28;20020;-53
2021/12/13 02:27:23;;;;;;;35.00;22.05;;;4.40;90.00;;;;;;5073662;28;20031;-55
2021/12/13 02:29:50;;;;;;;32.92;22.02;;;4.40;90.10;;;;;;5073443;28;20069;-53
2021/12/13 02:32:16;;;;;;;29.02;20.33;;;4.40;90.20;;;;;;5088773;28;20031;-57
2021/12/13 02:34:42;;;;;;;30.02;19.90;;;4.40;90.20;;;;;;5093815;28;20463;-55
2021/12/13 02:37:11;;;;;;;38.03;22.10;;;4.40;90.20;;;;;;5093617;28;20024;-56
2021/12/13 02:39:44;;;;;;;29.58;19.70;;;4.40;90.40;;;;;;5093525;28;20050;-58
2021/12/13 02:42:11;;;;;;;31.25;20.20;;;4.30;90.40;;;;;;5073479;28;20457;-58
2021/12/13 02:44:44;;;;;;;32.63;20.48;;;4.30;90.40;;;;;;5073187;28;20019;-56
2021/12/13 02:47:15;;;;;;;33.63;20.58;;;4.40;90.40;;;;;;5074186;28;20711;-57
2021/12/13 02:49:42;;;;;;;31.92;21.65;;;4.30;90.40;;;;;;5092885;28;20380;-58
2021/12/13 02:52:10;;;;;;;30.60;19.65;;;4.30;90.30;;;;;;5077578;28;20025;-58
2021/12/13 02:54:51;;;;;;;32.08;21.50;;;4.30;90.40;;;;;;5077568;28;20025;-56
2021/12/13 02:57:29;;;;;;;31.00;19.63;;;4.30;90.20;;;;;;5077588;28;20060;-56
2021/12/13 03:00:16;;;;;;;31.77;21.42;;;4.20;90.30;;;;;;5077375;28;20028;-57
2021/12/13 03:02:45;;;;;;;28.52;19.48;;;4.20;90.10;;;;;;5077240;28;20028;-58
2021/12/13 03:05:25;;;;;;;26.08;18.65;;;4.20;90.20;;;;;;5077055;28;20472;-55
2021/12/13 03:07:53;;;;;;;30.27;20.80;;;4.20;90.20;;;;;;5077271;28;20056;-57
2021/12/13 03:10:34;;;;;;;29.15;19.50;;;4.20;90.40;;;;;;5085356;28;20031;-58
2021/12/13 03:13:01;;;;;;;26.88;17.73;;;4.10;90.30;;;;;;5096127;28;20016;-58
2021/12/13 03:15:29;;;;;;;31.55;20.63;;;4.10;90.50;;;;;;5097556;28;20395;-58
2021/12/13 03:17:57;;;;;;;29.73;19.13;;;4.10;90.30;;;;;;5096203;28;20048;-58
2021/12/13 03:20:37;;;;;;;29.90;19.45;;;4.10;90.20;;;;;;5097237;28;20024;-57
2021/12/13 03:23:22;;;;;;;27.48;18.55;;;4.10;90.30;;;;;;5089527;28;20094;-58
2021/12/13 03:26:29;;;;;;;34.72;21.13;;;4.10;90.30;;;;;;5076835;28;20025;-55
2021/12/13 03:29:20;;;;;;;26.63;18.52;;;4.10;90.60;;;;;;5076900;28;20029;-58
2021/12/13 03:31:51;;;;;;;25.27;16.98;;;4.20;90.70;;;;;;5076578;28;20039;-58
2021/12/13 03:34:22;;;;;;;26.75;17.73;;;4.30;90.70;;;;;;5076710;28;20052;-56
2021/12/13 03:36:59;;;;;;;27.92;17.83;;;4.30;90.50;;;;;;5076913;28;20523;-57
2021/12/13 03:39:34;;;;;;;26.35;17.80;;;4.40;90.30;;;;;;5076672;28;20028;-57
2021/12/13 03:42:05;;;;;;;26.65;17.50;;;4.40;90.20;;;;;;5096890;28;20032;-58
2021/12/13 03:44:41;;;;;;;24.83;16.83;;;4.50;90.20;;;;;;5096819;28;20020;-57
2021/12/13 03:47:12;;;;;;;28.00;18.60;;;4.50;90.20;;;;;;5087073;28;20028;-57
2021/12/13 03:49:48;;;;;;;23.60;17.23;;;4.50;90.10;;;;;;5076683;28;20065;-58
2021/12/13 03:52:17;;;;;;;33.97;21.00;;;4.60;90.10;;;;;;5076168;28;20028;-58
2021/12/13 03:54:44;;;;;;;25.63;16.48;;;4.60;90.10;;;;;;5076131;28;20025;-57
2021/12/13 03:57:11;;;;;;;27.73;18.55;;;4.70;90.10;;;;;;5076437;28;20028;-58
2021/12/13 03:59:40;;;;;;;29.02;18.95;;;4.70;89.90;;;;;;5089750;28;20027;-58
2021/12/13 04:02:13;;;;;;;28.13;17.98;;;4.70;89.10;;;;;;5093152;28;20039;-57
2021/12/13 04:04:44;;;;;;;29.08;17.85;;;4.80;89.10;;;;;;5076756;28;20047;-56
2021/12/13 04:07:16;;;;;;;33.70;20.85;;;4.80;89.00;;;;;;5076045;28;20031;-58
2021/12/13 04:09:46;;;;;;;23.83;16.95;;;4.80;88.70;;;;;;5079224;28;20464;-56
2021/12/13 04:12:16;;;;;;;25.40;17.30;;;4.80;89.00;;;;;;5075564;28;20177;-57
2021/12/13 04:14:52;;;;;;;27.58;17.65;;;4.80;88.80;;;;;;5075912;28;20460;-59
2021/12/13 04:17:36;;;;;;;27.73;17.13;;;4.80;88.40;;;;;;5076312;28;20485;-58
2021/12/13 04:20:07;;;;;;;24.05;15.55;;;4.80;88.90;;;;;;5074497;28;20079;-58
2021/12/13 04:22:38;;;;;;;27.35;18.10;;;4.70;88.60;;;;;;5075701;28;20115;-58
2021/12/13 04:25:12;;;;;;;23.13;15.77;;;4.70;88.30;;;;;;5075657;28;20056;-57
2021/12/13 04:28:00;;;;;;;27.48;18.50;;;4.70;88.60;;;;;;5090282;28;20039;-58
2021/12/13 04:30:55;;;;;;;27.20;17.70;;;4.70;87.50;;;;;;5096062;28;20523;-59
2021/12/13 04:33:28;;;;;;;29.88;19.10;;;4.60;87.70;;;;;;5092821;28;20093;-58
2021/12/13 04:36:00;;;;;;;27.80;18.42;;;4.50;87.90;;;;;;5095879;28;20451;-56
2021/12/13 04:38:39;;;;;;;23.85;17.38;;;4.40;88.40;;;;;;5095623;28;20113;-59
2021/12/13 04:41:06;;;;;;;24.55;17.95;;;4.40;88.70;;;;;;5079290;28;20021;-55
2021/12/13 04:43:35;;;;;;;27.58;17.77;;;4.30;89.10;;;;;;5075174;28;20036;-58
2021/12/13 04:46:05;;;;;;;22.15;15.55;;;4.30;89.50;;;;;;5075478;28;20021;-57
2021/12/13 04:48:34;;;;;;;24.92;17.63;;;4.30;89.50;;;;;;5075361;28;20024;-58
2021/12/13 04:51:05;;;;;;;25.55;17.83;;;4.20;89.90;;;;;;5075286;28;20500;-59
2021/12/13 04:53:37;;;;;;;24.85;16.38;;;4.20;90.00;;;;;;5075278;28;20032;-58
2021/12/13 04:56:10;;;;;;;27.38;18.20;;;4.10;90.10;;;;;;5075095;28;20094;-57
2021/12/13 04:58:40;;;;;;;24.75;17.33;;;4.10;90.30;;;;;;5078299;28;20030;-57
2021/12/13 05:01:09;;;;;;;23.83;17.25;;;4.20;90.40;;;;;;5094088;28;20468;-58
2021/12/13 05:03:39;;;;;;;27.05;18.15;;;4.20;90.40;;;;;;5095219;28;20070;-56
2021/12/13 05:06:08;;;;;;;25.40;17.67;;;4.10;90.50;;;;;;5095247;28;20099;-58
2021/12/13 05:08:34;;;;;;;24.35;17.48;;;4.10;90.40;;;;;;5095436;28;20032;-58
2021/12/13 05:11:10;;;;;;;26.27;17.88;;;4.10;90.80;;;;;;5093505;28;20043;-55
2021/12/13 05:13:40;;;;;;;23.98;17.25;;;4.10;90.50;;;;;;5095209;28;20056;-59
2021/12/13 05:16:10;;;;;;;22.95;15.07;;;4.20;90.70;;;;;;5082690;28;20488;-57
2021/12/13 05:18:56;;;;;;;22.40;15.70;;;4.20;90.80;;;;;;5082379;28;20036;-57
2021/12/13 05:21:36;;;;;;;21.92;15.90;;;4.20;90.60;;;;;;5094971;28;20545;-57
2021/12/13 05:24:09;;;;;;;25.45;17.42;;;4.20;90.60;;;;;;5094852;28;20088;-59
2021/12/13 05:27:04;;;;;;;22.35;15.73;;;4.20;90.70;;;;;;5094695;28;20073;-58
2021/12/13 05:29:40;;;;;;;27.50;19.02;;;4.20;90.50;;;;;;5095257;28;20063;-59
2021/12/13 05:32:08;;;;;;;27.02;17.80;;;4.30;90.80;;;;;;5082985;28;20037;-57
2021/12/13 05:34:56;;;;;;;23.23;16.73;;;4.30;90.70;;;;;;5074493;28;20457;-58
2021/12/13 05:37:23;;;;;;;27.50;18.67;;;4.40;90.60;;;;;;5074679;28;20510;-59
2021/12/13 05:40:05;;;;;;;31.02;20.50;;;4.40;90.70;;;;;;5078948;28;20468;-59
2021/12/13 05:42:42;;;;;;;27.48;19.65;;;4.50;90.60;;;;;;5094631;28;20028;-59
2021/12/13 05:45:11;;;;;;;25.15;16.17;;;4.60;90.50;;;;;;5094409;28;20107;-58
2021/12/13 05:47:37;;;;;;;24.80;16.75;;;4.70;90.40;;;;;;5089444;28;20020;-58
2021/12/13 05:50:06;;;;;;;26.90;18.38;;;4.70;90.10;;;;;;5094379;28;20409;-57
2021/12/13 05:52:37;;;;;;;32.22;19.50;;;4.80;90.20;;;;;;5094631;28;20032;-57
2021/12/13 05:55:12;;;;;;;29.73;20.38;;;4.80;90.00;;;;;;5094310;28;20111;-59
2021/12/13 05:57:43;;;;;;;23.55;15.82;;;4.90;89.80;;;;;;5094481;28;20460;-57
2021/12/13 06:00:32;;;;;;;26.38;17.85;;;4.90;89.30;;;;;;5088474;28;20031;-59
2021/12/13 06:03:06;;;;;;;32.03;20.30;;;4.90;89.20;;;;;;5080456;28;20037;-58
2021/12/13 06:05:31;;;;;;;32.65;19.95;;;4.90;89.50;;;;;;5087153;28;20020;-59
2021/12/13 06:08:03;;;;;;;32.05;21.63;;;4.90;89.40;;;;;;5093939;28;20016;-57
2021/12/13 06:10:57;;;;;;;30.85;20.17;;;5.00;89.10;;;;;;5093362;28;20016;-59
2021/12/13 06:13:42;;;;;;;34.03;22.77;;;5.00;88.80;;;;;;5093958;28;20020;-59
2021/12/13 06:16:08;;;;;;;33.78;22.58;;;5.00;88.40;;;;;;5093873;28;20024;-55
2021/12/13 06:18:43;;;;;;;26.10;18.08;;;5.00;88.50;;;;;;5092645;28;20479;-59
2021/12/13 06:21:51;;;;;;;30.38;20.50;;;5.10;88.10;;;;;;5082565;28;20031;-58
2021/12/13 06:24:42;;;;;;;28.90;19.30;;;5.00;87.60;;;;;;5091576;28;20074;-57
2021/12/13 06:27:31;;;;;;;28.75;18.17;;;5.00;87.60;;;;;;5081084;28;20112;-59
2021/12/13 06:30:04;;;;;;;23.40;16.33;;;5.00;87.80;;;;;;5080222;28;20077;-58
2021/12/13 06:32:37;;;;;;;23.40;15.93;;;4.90;87.80;;;;;;5079682;28;20505;-57
2021/12/13 06:35:34;;;;;;;23.80;17.35;;;4.90;87.30;;;;;;5073867;28;20040;-56
2021/12/13 06:38:19;;;;;;;21.30;14.48;;;4.90;87.40;;;;;;5077208;28;20561;-58
2021/12/13 06:41:02;;;;;;;23.88;17.20;;;4.80;87.20;;;;;;5076318;28;20024;-58
2021/12/13 06:43:57;;;;;;;24.00;15.23;;;4.80;87.10;;;;;;5074615;28;20039;-58
2021/12/13 06:46:22;;;;;;;22.70;16.08;;;4.70;87.60;;;;;;5051773;28;20040;-59
2021/12/13 06:48:51;;;;;;;21.95;13.93;;;4.70;87.50;;;;;;5075876;28;20024;-59
2021/12/13 06:51:19;;;;;;;20.38;14.13;;;4.60;87.80;;;;;;5075897;28;20039;-60
2021/12/13 06:54:10;;;;;;;21.83;14.07;;;4.60;88.00;;;;;;5073414;28;20078;-59
2021/12/13 06:56:39;;;;;;;19.42;13.90;;;4.50;88.20;;;;;;5066715;28;20032;-60
2021/12/13 06:59:07;;;;;;;17.88;13.80;;;4.40;88.90;;;;;;5064988;28;20043;-59
2021/12/13 07:01:36;;;;;;;21.10;14.90;;;4.40;88.70;;;;;;5068687;28;20031;-58
2021/12/13 07:04:08;;;;;;;21.33;14.85;;;4.40;88.50;;;;;;5056323;28;20466;-59
2021/12/13 07:06:34;;;;;;;19.25;13.70;;;4.40;89.40;;;;;;5063915;28;20411;-60
2021/12/13 07:09:08;;;;;;;24.52;14.88;;;4.30;89.50;;;;;;5060597;28;20069;-60
2021/12/13 07:11:56;;;;;;;20.58;14.40;;;4.40;89.80;;;;;;5065064;28;20020;-57
2021/12/13 07:14:36;;;;;;;22.77;14.60;;;4.40;89.90;;;;;;5064062;28;20032;-60
2021/12/13 07:17:20;;;;;;;19.88;14.10;;;4.30;90.00;;;;;;5068358;28;20028;-61
2021/12/13 07:19:49;;;;;;;20.35;14.20;;;4.40;90.10;;;;;;5065656;28;20055;-60
2021/12/13 07:22:32;;;;;;;20.25;14.95;;;4.40;90.10;;;;;;5067256;28;20049;-58
2021/12/13 07:25:33;;;;;;;21.02;14.82;;;4.40;89.60;;;;;;5069208;28;20036;-58
2021/12/13 07:27:59;;;;;;;20.20;13.80;;;4.30;89.20;;;;;;5052903;28;20762;-59
2021/12/13 07:30:29;;;;;;;17.95;12.70;;;4.30;89.50;;;;;;5063480;28;20057;-60
2021/12/13 07:33:03;;;;;;;18.98;13.02;;;4.20;90.10;;;;;;5067824;28;20098;-60
2021/12/13 07:35:48;;;;;;;20.80;13.40;;;4.20;90.10;;;;;;5067304;28;20028;-60
2021/12/13 07:38:17;;;;;;;18.70;13.45;;;4.20;90.10;;;;;;5070088;28;20088;-59
2021/12/13 07:40:56;;;;;;;19.63;14.45;;;4.20;90.10;;;;;;5071496;28;20105;-60
2021/12/13 07:43:31;;;;;;;15.80;11.82;;;4.30;90.20;;;;;;5071508;28;20028;-60
2021/12/13 07:45:56;;;;;;;21.52;15.13;;;4.30;90.50;;;;;;5073220;28;20107;-60
2021/12/13 07:48:33;;;;;;;18.90;14.35;;;4.40;90.40;;;;;;5070524;28;20042;-60
2021/12/13 07:51:10;;;;;;;20.60;13.95;;;4.40;90.30;;;;;;5074470;28;20033;-59
2021/12/13 07:53:58;;;;;;;21.33;13.73;;;4.50;90.40;;;;;;5071118;28;20044;-60
2021/12/13 07:56:24;;;;;;;17.90;12.13;;;4.60;90.30;;;;;;5063774;28;20086;-60
2021/12/13 07:58:58;;;;;;;17.30;11.88;;;4.70;90.10;;;;;;5069932;28;20036;-59
2021/12/13 08:01:28;;;;;;;18.42;14.45;;;4.70;89.70;;;;;;5065569;28;20460;-59
2021/12/13 08:03:59;;;;;;;19.13;13.10;;;4.80;89.90;;;;;;5062693;28;20023;-60
2021/12/13 08:06:31;;;;;;;21.42;14.57;;;4.80;88.70;;;;;;5064953;28;20036;-60
2021/12/13 08:09:00;;;;;;;18.23;13.32;;;4.70;88.60;;;;;;5065275;28;20052;-57
2021/12/13 08:11:45;;;;;;;18.88;12.65;;;4.70;88.70;;;;;;5065466;28;20401;-59
2021/12/13 08:14:12;;;;;;;19.75;13.18;;;4.60;89.20;;;;;;5072135;28;20570;-60
2021/12/13 08:16:45;;;;;;;18.70;13.15;;;4.60;89.60;;;;;;5071795;28;20024;-60
2021/12/13 08:19:19;;;;;;;19.77;13.93;;;4.70;90.00;;;;;;5069064;28;20032;-60
2021/12/13 08:21:56;;;;;;;20.48;13.93;;;4.70;89.90;;;;;;5067098;28;20066;-60
2021/12/13 08:24:32;;;;;;;15.40;11.02;;;4.80;89.90;;;;;;5066092;28;20034;-60
2021/12/13 08:27:12;;;;;;;16.25;11.13;;;4.90;89.30;;;;;;5067073;28;20029;-61
2021/12/13 08:29:40;;;;;;;13.25;10.10;;;4.90;88.80;;;;;;5068165;28;20039;-60
2021/12/13 08:32:25;;;;;;;14.85;11.23;;;4.80;88.40;;;;;;5069320;28;20040;-58
2021/12/13 08:34:57;;;;;;;12.70;9.63;;;4.80;88.40;;;;;;5066940;28;20765;-59
2021/12/13 08:37:30;;;;;;;11.77;10.00;;;4.80;88.60;;;;;;5063533;28;20024;-59
2021/12/13 08:40:02;;;;;;;14.38;11.00;;;4.70;88.60;;;;;;5068560;28;20488;-58
2021/12/13 08:42:31;;;;;;;14.23;10.75;;;4.70;89.10;;;;;;5065123;28;20028;-59
2021/12/13 08:45:05;;;;;;;17.35;11.27;;;4.80;89.10;;;;;;5062637;28;20051;-60
2021/12/13 08:47:45;;;;;;;14.73;11.50;;;4.80;89.30;;;;;;5061207;28;20035;-60
2021/12/13 08:50:20;;;;;;;14.43;11.15;;;4.90;89.00;;;;;;5063508;28;20025;-61
2021/12/13 08:52:52;;;;;;;12.27;9.63;;;4.90;89.00;;;;;;5059244;28;20031;-61
2021/12/13 08:55:37;;;;;;;15.38;11.00;;;5.00;88.70;;;;;;5065246;28;20073;-57
2021/12/13 08:58:12;;;;;;;12.38;9.77;;;5.00;88.40;;;;;;5059221;28;20032;-59
2021/12/13 09:01:07;;;;;;;14.52;10.75;;;5.10;88.40;;;;;;5065665;28;20117;-57
2021/12/13 09:03:43;;;;;;;15.55;11.50;;;5.10;87.80;;;;;;5067082;28;20027;-60
2021/12/13 09:06:17;;;;;;;16.83;12.60;;;5.10;87.30;;;;;;5069346;28;20497;-59
2021/12/13 09:08:58;;;;;;;13.63;10.00;;;5.10;87.40;;;;;;5071727;28;20030;-60
2021/12/13 09:11:34;;;;;;;18.00;11.30;;;5.20;87.60;;;;;;5065926;28;20032;-60
2021/12/13 09:14:13;;;;;;;12.90;9.25;;;5.20;87.50;;;;;;5063876;28;20039;-59
2021/12/13 09:17:22;;;;;;;16.17;12.63;;;5.20;87.40;;;;;;5063217;28;20086;-59
2021/12/13 09:19:49;;;;;;;15.75;10.65;;;5.20;87.30;;;;;;5064446;28;20044;-61
2021/12/13 09:22:38;;;;;;;14.43;10.75;;;5.20;87.90;;;;;;5063504;28;20047;-60
2021/12/13 09:25:19;;;;;;;14.27;10.68;;;5.30;87.60;;;;;;5054741;28;20038;-61
2021/12/13 09:28:01;;;;;;;12.13;9.23;;;5.30;87.30;;;;;;5060950;28;20063;-60
2021/12/13 09:30:45;;;;;;;16.45;10.88;;;5.30;86.60;;;;;;5065459;28;20036;-60
2021/12/13 09:33:21;;;;;;;13.98;10.32;;;5.30;86.40;;;;;;5059497;28;20039;-59
2021/12/13 09:35:49;;;;;;;13.63;10.35;;;5.20;86.50;;;;;;5062972;28;20174;-60
2021/12/13 09:38:17;;;;;;;17.83;11.18;;;5.20;86.60;;;;;;5060678;28;20028;-59
2021/12/13 09:40:49;;;;;;;16.00;10.93;;;5.20;87.00;;;;;;5068331;28;20035;-60
2021/12/13 09:43:15;;;;;;;;;;;5.10;86.10;;;;;;5065420;28;20028;-59
2021/12/13 09:45:48;;;;;;;16.48;11.95;;;5.10;85.40;;;;;;5062841;28;19924;-61
2021/12/13 09:48:25;;;;;;;17.75;13.00;;;5.00;86.30;;;;;;5053718;28;20039;-60
2021/12/13 09:50:58;;;;;;;15.02;11.02;;;4.90;86.70;;;;;;5058945;28;20036;-61
2021/12/13 09:53:31;;;;;;;16.58;11.52;;;4.90;87.00;;;;;;5066631;28;20028;-59
2021/12/13 09:55:59;;;;;;;17.30;12.48;;;4.90;86.90;;;;;;5060063;28;20387;-61
2021/12/13 09:58:42;;;;;;;18.60;13.48;;;4.90;87.30;;;;;;5057935;28;20032;-60
2021/12/13 10:01:16;;;;;;;17.45;11.60;;;5.00;87.30;;;;;;5046166;28;20116;-60
2021/12/13 10:04:08;;;;;;;17.17;11.70;;;5.00;87.60;;;;;;5060493;28;20025;-59
2021/12/13 10:06:41;;;;;;;14.30;10.60;;;5.00;87.20;;;;;;5057697;28;20267;-59
2021/12/13 10:09:39;;;;;;;15.43;10.98;;;5.00;87.50;;;;;;5060428;28;20036;-60
2021/12/13 10:12:22;;;;;;;15.88;10.15;;;4.90;86.90;;;;;;5065353;28;20157;-61
2021/12/13 10:14:56;;;;;;;17.95;13.45;;;4.90;87.40;;;;;;5060634;28;20056;-60
2021/12/13 10:17:27;;;;;;;16.15;11.63;;;4.90;87.70;;;;;;5067426;28;20051;-60
2021/12/13 10:19:58;;;;;;;14.25;10.15;;;4.90;87.40;;;;;;5060867;28;20029;-60
2021/12/13 10:22:30;;;;;;;14.88;11.10;;;4.90;87.50;;;;;;5062291;28;20051;-60
2021/12/13 10:25:15;;;;;;;14.23;10.25;;;4.80;87.40;;;;;;5068619;28;20034;-62
2021/12/13 10:27:41;;;;;;;15.63;10.98;;;4.80;87.60;;;;;;5066972;28;20085;-61
2021/12/13 10:30:21;;;;;;;16.10;11.20;;;4.80;88.40;;;;;;5058870;28;20115;-62
2021/12/13 10:32:47;;;;;;;15.40;11.00;;;4.80;88.20;;;;;;5063211;28;20043;-62
2021/12/13 10:35:21;;;;;;;14.82;11.18;;;4.80;88.80;;;;;;5069059;28;20059;-58
2021/12/13 10:37:52;;;;;;;16.20;11.68;;;4.80;88.80;;;;;;5061008;28;20058;-59
2021/12/13 10:40:25;;;;;;;13.40;9.70;;;4.80;88.30;;;;;;5069295;28;20043;-60
2021/12/13 10:43:09;;;;;;;12.40;9.45;;;4.90;87.90;;;;;;5059162;28;20316;-60
2021/12/13 10:45:42;;;;;;;11.85;9.65;;;4.80;88.00;;;;;;5067822;28;20041;-60
2021/12/13 10:48:10;;;;;;;14.05;10.15;;;4.80;88.20;;;;;;5066707;28;20037;-61
2021/12/13 10:50:48;;;;;;;15.93;10.88;;;4.80;88.00;;;;;;5063241;28;20205;-59
2021/12/13 10:53:17;;;;;;;16.08;11.30;;;4.80;87.70;;;;;;5067565;28;20040;-58
2021/12/13 10:55:47;;;;;;;13.73;10.13;;;4.80;88.60;;;;;;5066149;28;20391;-58
2021/12/13 10:58:19;;;;;;;11.57;9.18;;;4.80;88.60;;;;;;5062754;28;20140;-59
2021/12/13 11:01:17;;;;;;;13.10;9.70;;;4.80;88.20;;;;;;5061129;28;20480;-60
2021/12/13 11:03:44;;;;;;;13.25;8.95;;;4.90;88.30;;;;;;5058743;28;20035;-60
2021/12/13 11:06:12;;;;;;;11.15;9.02;;;4.90;88.20;;;;;;5057167;28;20718;-60
2021/12/13 11:08:44;;;;;;;15.52;10.90;;;4.90;88.50;;;;;;5057655;28;20038;-60
2021/12/13 11:11:36;;;;;;;15.00;11.15;;;4.90;88.60;;;;;;5066629;28;20117;-60
2021/12/13 11:14:15;;;;;;;15.35;10.88;;;4.90;88.40;;;;;;5064512;28;20052;-60
2021/12/13 11:16:44;;;;;;;12.27;9.45;;;4.90;87.90;;;;;;5075258;28;20040;-59
2021/12/13 11:19:13;;;;;;;15.88;10.00;;;4.90;87.60;;;;;;5081104;28;20020;-59
2021/12/13 11:21:43;;;;;;;13.07;9.43;;;4.90;87.70;;;;;;5075777;28;20040;-59
2021/12/13 11:24:14;;;;;;;13.30;8.82;;;4.80;88.00;;;;;;5073562;28;20105;-60
2021/12/13 11:26:43;;;;;;;11.73;9.48;;;4.80;87.90;;;;;;5078107;28;20931;-59
2021/12/13 11:29:11;;;;;;;14.20;10.35;;;4.70;87.90;;;;;;5074155;28;20043;-59
2021/12/13 11:32:00;;;;;;;13.40;9.32;;;4.70;87.80;;;;;;5072753;28;20039;-59
2021/12/13 11:35:03;;;;;;;10.65;9.50;;;4.70;88.30;;;;;;5074332;28;20085;-58
2021/12/13 11:37:59;;;;;;;14.43;10.15;;;4.60;88.40;;;;;;5072528;28;20036;-60
2021/12/13 11:41:02;;;;;;;13.20;9.38;;;4.60;88.70;;;;;;5076247;28;20036;-60
2021/12/13 11:44:05;;;;;;;13.90;10.80;;;4.60;89.20;;;;;;5074605;28;20016;-60
2021/12/13 11:46:58;;;;;;;13.88;10.43;;;4.60;89.20;;;;;;5068423;28;20047;-60
2021/12/13 11:49:43;;;;;;;13.55;10.52;;;4.60;89.60;;;;;;5068478;28;20054;-60
2021/12/13 11:52:29;;;;;;;13.85;10.70;;;4.60;90.00;;;;;;5064723;28;20064;-61
2021/12/13 11:55:35;;;;;;;17.58;12.25;;;4.60;90.00;;;;;;5074643;28;20035;-61
2021/12/13 11:58:39;;;;;;;16.00;10.57;;;4.70;89.80;;;;;;5075482;28;20059;-60
2021/12/13 12:01:49;;;;;;;16.40;11.57;;;4.70;89.70;;;;;;5077342;28;20488;-60
2021/12/13 12:04:51;;;;;;;16.73;13.18;;;4.70;89.80;;;;;;5070927;28;20021;-59
2021/12/13 12:07:25;;;;;;;16.95;12.15;;;4.70;89.80;;;;;;5067802;28;20107;-61
2021/12/13 12:10:20;;;;;;;14.98;11.38;;;4.70;90.10;;;;;;5069967;28;20101;-61
2021/12/13 12:13:27;;;;;;;15.82;10.98;;;4.70;90.10;;;;;;5064958;28;20061;-62
2021/12/13 12:15:58;;;;;;;13.50;10.75;;;4.70;89.30;;;;;;5072110;28;20032;-62
2021/12/13 12:18:25;;;;;;;13.43;9.88;;;4.70;89.90;;;;;;5065006;28;20039;-59
2021/12/13 12:21:33;;;;;;;14.32;10.02;;;4.70;89.90;;;;;;5068661;28;20084;-60
2021/12/13 12:24:11;;;;;;;15.15;9.70;;;4.70;90.00;;;;;;5061310;28;20028;-60
2021/12/13 12:26:38;;;;;;;13.80;9.88;;;4.70;89.80;;;;;;5069151;28;20039;-61
2021/12/13 12:29:16;;;;;;;12.93;9.95;;;4.70;89.90;;;;;;5064153;28;20056;-61
2021/12/13 12:31:46;;;;;;;14.30;10.07;;;4.70;89.90;;;;;;5073117;28;20055;-61
2021/12/13 12:34:13;;;;;;;12.82;10.85;;;4.80;90.10;;;;;;5069235;28;20028;-60
2021/12/13 12:36:57;;;;;;;14.05;10.77;;;4.80;90.00;;;;;;5064519;28;20043;-60
2021/12/13 12:39:38;;;;;;;15.13;10.77;;;4.90;90.10;;;;;;5067864;28;21541;-60
2021/12/13 12:42:27;;;;;;;16.00;10.00;;;4.90;89.90;;;;;;5071001;28;20024;-60
2021/12/13 12:44:55;;;;;;;13.80;10.88;;;4.90;89.60;;;;;;5066460;28;20032;-60
2021/12/13 12:47:36;;;;;;;12.70;9.48;;;4.90;89.40;;;;;;5064789;28;20039;-61
2021/12/13 12:50:40;;;;;;;13.70;10.40;;;4.90;89.40;;;;;;5073591;28;20036;-61
2021/12/13 12:53:13;;;;;;;17.33;11.80;;;4.90;89.80;;;;;;5057122;28;20624;-59
2021/12/13 12:55:58;;;;;;;18.27;13.13;;;4.90;89.70;;;;;;5060951;28;20134;-59
2021/12/13 12:58:30;;;;;;;15.05;11.00;;;5.00;90.10;;;;;;5060175;28;20077;-61
2021/12/13 13:01:00;;;;;;;17.60;13.07;;;5.10;90.00;;;;;;5066029;28;20361;-62
2021/12/13 13:03:30;;;;;;;16.88;11.93;;;5.10;90.00;;;;;;5058757;28;20101;-60
2021/12/13 13:06:10;;;;;;;17.15;12.50;;;5.20;90.00;;;;;;5068559;28;20032;-61
2021/12/13 13:08:39;;;;;;;16.42;12.98;;;5.20;89.90;;;;;;5072535;28;20031;-60
2021/12/13 13:11:26;;;;;;;15.45;11.70;;;5.30;89.90;;;;;;5069031;28;20772;-61
2021/12/13 13:13:54;;;;;;;17.60;13.07;;;5.30;90.10;;;;;;5065434;28;20063;-60
2021/12/13 13:16:27;;;;;;;14.73;11.25;;;5.40;89.70;;;;;;5067590;28;20115;-59
2021/12/13 13:18:55;;;;;;;14.57;11.30;;;5.40;89.40;;;;;;5065615;28;20028;-60
2021/12/13 13:21:21;;;;;;;17.25;13.35;;;5.40;89.00;;;;;;5064001;28;20028;-60
2021/12/13 13:23:52;;;;;;;17.63;12.50;;;5.40;89.00;;;;;;5062456;28;20086;-61
2021/12/13 13:26:18;;;;;;;23.67;15.45;;;5.50;89.10;;;;;;5062034;28;21584;-60
2021/12/13 13:28:53;;;;;;;20.75;14.02;;;5.50;89.50;;;;;;5067556;28;20055;-61